Time;durP1;ratioP1;P1;durP2;ratioP2;P2;SDS_P1;SDS_P2;PMS_P1;PMS_P2;Temp;Humidity;BMP_temperature;BMP_pressure;BME280_temperature;BME280_humidity;BME280_pressure;Samples;Min_cycle;Max_cycle;Signal;HPM_P1;HPM_P2
2021/08/22 00:01:09;;;;;;;4.72;2.97;;;18.30;99.90;;;;;;5014572;28;20036;-75
2021/08/22 00:03:34;;;;;;;5.75;3.30;;;;;;;;;;5015613;28;20419;-76
2021/08/22 00:06:00;;;;;;;7.97;3.58;;;18.30;99.90;;;;;;5004728;28;20590;-79
2021/08/22 00:08:26;;;;;;;7.68;3.33;;;18.50;99.90;;;;;;5019733;28;20404;-76
2021/08/22 00:10:51;;;;;;;6.57;3.60;;;18.40;99.90;;;;;;4995326;28;20018;-77
2021/08/22 00:13:17;;;;;;;5.88;3.42;;;18.40;99.90;;;;;;5011328;28;20078;-78
2021/08/22 00:15:43;;;;;;;5.47;3.20;;;18.50;99.90;;;;;;5006473;28;20025;-76
2021/08/22 00:18:09;;;;;;;8.00;4.53;;;18.40;99.90;;;;;;5014843;28;20408;-76
2021/08/22 00:20:34;;;;;;;8.95;3.13;;;18.50;99.90;;;;;;5000317;28;20033;-76
2021/08/22 00:23:00;;;;;;;8.35;3.50;;;18.50;99.90;;;;;;5002148;28;20029;-77
2021/08/22 00:25:26;;;;;;;5.97;3.42;;;19.30;99.90;;;;;;5005610;28;20107;-77
2021/08/22 00:27:51;;;;;;;6.28;3.28;;;18.40;99.90;;;;;;5016838;28;20030;-76
2021/08/22 00:30:17;;;;;;;10.00;3.80;;;18.50;99.90;;;;;;5016568;28;20025;-77
2021/08/22 00:32:43;;;;;;;5.45;3.45;;;18.40;99.90;;;;;;5004137;28;20502;-76
2021/08/22 00:35:09;;;;;;;6.03;3.28;;;18.40;99.90;;;;;;5017489;28;20055;-78
2021/08/22 00:37:35;;;;;;;5.10;3.03;;;18.40;99.90;;;;;;5009689;28;20098;-76
2021/08/22 00:40:00;;;;;;;6.72;3.33;;;18.50;99.90;;;;;;4988541;28;20461;-77
2021/08/22 00:42:33;;;;;;;5.35;3.42;;;18.40;99.90;;;;;;4997953;28;20105;-79
2021/08/22 00:45:03;;;;;;;6.82;3.80;;;18.50;99.90;;;;;;5012212;28;20483;-78
2021/08/22 00:47:29;;;;;;;6.50;3.40;;;18.50;99.90;;;;;;4998691;28;20073;-76
2021/08/22 00:49:55;;;;;;;8.43;3.83;;;18.50;99.90;;;;;;4993220;28;20465;-77
2021/08/22 00:52:21;;;;;;;6.43;3.80;;;18.50;99.90;;;;;;4993670;28;20049;-76
2021/08/22 00:54:47;;;;;;;6.20;3.60;;;19.20;99.90;;;;;;4999456;28;20026;-76
2021/08/22 00:57:15;;;;;;;8.30;3.38;;;19.20;99.90;;;;;;5015212;28;20080;-79
2021/08/22 00:59:42;;;;;;;5.43;3.55;;;18.90;99.90;;;;;;4993651;28;20053;-76
2021/08/22 01:02:21;;;;;;;5.95;3.20;;;18.60;99.90;;;;;;4991282;28;20018;-77
2021/08/22 01:04:55;;;;;;;6.22;3.15;;;18.50;99.90;;;;;;4991010;28;20112;-78
2021/08/22 01:07:27;;;;;;;5.43;3.50;;;18.50;99.90;;;;;;5003507;28;20439;-75
2021/08/22 01:09:53;;;;;;;6.50;3.40;;;18.50;99.90;;;;;;5006714;28;20033;-75
2021/08/22 01:12:59;;;;;;;6.25;3.70;;;19.30;99.90;;;;;;5002789;28;20125;-76
2021/08/22 01:15:25;;;;;;;6.18;3.28;;;18.60;99.90;;;;;;4958214;28;20040;-77
2021/08/22 01:17:52;;;;;;;5.85;3.58;;;18.50;99.90;;;;;;4991321;28;20041;-76
2021/08/22 01:20:42;;;;;;;5.65;3.33;;;18.60;99.90;;;;;;5033129;28;20010;-80
2021/08/22 01:23:09;;;;;;;;;;;18.60;99.90;;;;;;5035069;28;20022;-77
2021/08/22 01:25:37;;;;;;;6.00;3.50;;;18.60;99.90;;;;;;5017269;28;20406;-78
2021/08/22 01:28:05;;;;;;;5.50;3.85;;;18.60;99.90;;;;;;5018085;28;20538;-78
2021/08/22 01:30:37;;;;;;;8.32;3.72;;;18.60;99.90;;;;;;5002332;28;20057;-77
2021/08/22 01:33:10;;;;;;;5.80;3.60;;;18.60;99.90;;;;;;4992739;28;20076;-78
2021/08/22 01:35:36;;;;;;;5.95;3.42;;;18.60;99.90;;;;;;5002600;28;20057;-77
2021/08/22 01:38:02;;;;;;;7.38;3.90;;;18.60;99.90;;;;;;5015428;28;20022;-78
2021/08/22 01:40:29;;;;;;;4.93;3.38;;;18.70;99.90;;;;;;4994754;28;20021;-78
2021/08/22 01:42:55;;;;;;;6.25;4.05;;;18.70;99.90;;;;;;4998177;28;20029;-77
2021/08/22 01:45:21;;;;;;;5.57;3.25;;;18.70;99.90;;;;;;4998415;28;20030;-78
2021/08/22 01:47:48;;;;;;;6.63;3.60;;;18.70;99.90;;;;;;5014986;28;20051;-79
2021/08/22 01:50:17;;;;;;;6.60;3.67;;;18.70;99.90;;;;;;4986257;28;20053;-79
2021/08/22 01:52:43;;;;;;;8.15;4.40;;;18.90;99.90;;;;;;5013247;28;20026;-77
2021/08/22 01:55:09;;;;;;;7.55;4.50;;;20.30;99.90;;;;;;5008622;28;20372;-78
2021/08/22 01:57:40;;;;;;;6.45;4.30;;;18.80;99.90;;;;;;5001563;28;20026;-78
2021/08/22 02:00:06;;;;;;;7.38;4.70;;;18.80;99.90;;;;;;5013552;28;20037;-77
2021/08/22 02:02:32;;;;;;;7.32;4.25;;;18.80;99.90;;;;;;4996310;28;20042;-77
2021/08/22 02:05:03;;;;;;;7.05;4.20;;;18.90;99.90;;;;;;4995549;28;20018;-78
2021/08/22 02:07:31;;;;;;;7.18;3.97;;;18.80;99.90;;;;;;5013983;28;20029;-77
2021/08/22 02:10:04;;;;;;;6.95;3.80;;;18.80;99.90;;;;;;5012519;28;20422;-76
2021/08/22 02:12:31;;;;;;;6.88;3.88;;;18.80;99.90;;;;;;4999660;28;20027;-77
2021/08/22 02:15:04;;;;;;;6.18;3.95;;;18.90;99.90;;;;;;5013440;28;20029;-79
2021/08/22 02:17:36;;;;;;;4.88;3.60;;;18.80;99.90;;;;;;4992766;28;20025;-78
2021/08/22 02:20:04;;;;;;;6.18;4.03;;;18.90;99.90;;;;;;5013071;28;20034;-77
2021/08/22 02:22:32;;;;;;;6.53;3.85;;;18.90;99.90;;;;;;4983331;28;20097;-76
2021/08/22 02:24:59;;;;;;;6.85;3.80;;;18.90;99.90;;;;;;5015149;28;20049;-77
2021/08/22 02:27:28;;;;;;;7.95;4.68;;;18.90;99.90;;;;;;5002222;28;20571;-78
2021/08/22 02:29:54;;;;;;;7.82;4.28;;;18.90;99.90;;;;;;5001331;28;20085;-77
2021/08/22 02:32:20;;;;;;;7.55;4.30;;;18.90;99.90;;;;;;4995797;28;20118;-75
2021/08/22 02:34:46;;;;;;;5.97;3.47;;;19.00;99.90;;;;;;5002461;28;20112;-77
2021/08/22 02:37:11;;;;;;;5.05;3.30;;;19.00;99.90;;;;;;5013226;28;20053;-76
2021/08/22 02:39:37;;;;;;;7.07;3.42;;;19.50;99.90;;;;;;5003254;28;20029;-75
2021/08/22 02:42:04;;;;;;;7.57;3.78;;;19.20;99.90;;;;;;4986954;28;20025;-77
2021/08/22 02:44:30;;;;;;;6.57;3.67;;;19.00;99.90;;;;;;5013396;28;20385;-76
2021/08/22 02:46:56;;;;;;;8.13;4.30;;;19.10;99.90;;;;;;5012847;28;20022;-76
2021/08/22 02:49:22;;;;;;;6.65;3.83;;;19.10;99.90;;;;;;4990559;28;20033;-78
2021/08/22 02:51:47;;;;;;;6.05;4.03;;;19.50;99.90;;;;;;4984269;28;20030;-76
2021/08/22 02:54:13;;;;;;;7.75;4.25;;;19.10;99.90;;;;;;4995180;28;20168;-77
2021/08/22 02:56:39;;;;;;;6.55;4.30;;;19.10;99.90;;;;;;5013364;28;20026;-75
2021/08/22 02:59:04;;;;;;;6.93;3.75;;;19.10;99.90;;;;;;5002201;28;20026;-76
2021/08/22 03:01:30;;;;;;;6.53;3.97;;;19.10;99.90;;;;;;4998269;28;20045;-78
2021/08/22 03:03:56;;;;;;;8.88;4.75;;;19.10;99.90;;;;;;5003416;28;20037;-76
2021/08/22 03:06:21;;;;;;;8.13;4.50;;;19.10;99.90;;;;;;5000695;28;20030;-76
2021/08/22 03:08:47;;;;;;;8.40;4.70;;;19.00;99.90;;;;;;5010087;28;20026;-78
2021/08/22 03:11:19;;;;;;;6.63;4.50;;;19.40;99.90;;;;;;5000374;28;20117;-78
2021/08/22 03:13:48;;;;;;;6.35;4.32;;;19.00;99.90;;;;;;5004603;28;20033;-78
2021/08/22 03:16:15;;;;;;;8.38;4.03;;;19.40;99.90;;;;;;5006679;28;20030;-78
2021/08/22 03:18:40;;;;;;;7.18;4.10;;;18.90;99.90;;;;;;5007482;28;20025;-78
2021/08/22 03:21:06;;;;;;;6.82;4.55;;;19.00;99.90;;;;;;5014184;28;20384;-78
2021/08/22 03:23:31;;;;;;;6.55;4.10;;;18.90;99.90;;;;;;5005998;28;20034;-77
2021/08/22 03:25:57;;;;;;;8.77;4.57;;;18.90;99.90;;;;;;4999356;28;20052;-78
2021/08/22 03:28:23;;;;;;;8.48;5.00;;;18.90;99.90;;;;;;5015069;28;20030;-79
2021/08/22 03:30:51;;;;;;;8.98;5.00;;;18.90;99.90;;;;;;5014734;28;20037;-77
2021/08/22 03:33:17;;;;;;;7.78;5.05;;;18.80;99.90;;;;;;5017250;28;20026;-76
2021/08/22 03:35:43;;;;;;;7.70;4.72;;;18.90;99.90;;;;;;5001752;28;20108;-77
2021/08/22 03:38:09;;;;;;;8.50;5.05;;;18.90;99.90;;;;;;4993969;28;20042;-76
2021/08/22 03:40:34;;;;;;;8.23;4.82;;;18.70;99.90;;;;;;4997195;28;20098;-76
2021/08/22 03:43:00;;;;;;;8.52;4.97;;;18.90;99.90;;;;;;4997586;28;20095;-77
2021/08/22 03:45:26;;;;;;;8.27;4.55;;;18.90;99.90;;;;;;4998809;28;20040;-78
2021/08/22 03:47:52;;;;;;;8.40;5.20;;;18.90;99.90;;;;;;4995095;28;20504;-78
2021/08/22 03:50:17;;;;;;;7.93;5.15;;;18.90;99.90;;;;;;5006208;28;20022;-79
2021/08/22 03:52:43;;;;;;;7.03;4.68;;;18.90;99.90;;;;;;5013422;28;20066;-78
2021/08/22 03:55:09;;;;;;;7.38;5.18;;;18.90;99.90;;;;;;5015207;28;20030;-78
2021/08/22 03:57:35;;;;;;;9.23;5.75;;;18.90;99.90;;;;;;5014818;28;20030;-76
2021/08/22 04:00:00;;;;;;;7.70;4.65;;;18.90;99.90;;;;;;4994504;28;20063;-78
2021/08/22 04:02:26;;;;;;;7.18;5.25;;;19.20;99.90;;;;;;5018742;28;20100;-78
2021/08/22 04:04:52;;;;;;;8.40;5.20;;;18.90;99.90;;;;;;5015925;28;20029;-78
2021/08/22 04:07:18;;;;;;;7.95;5.35;;;18.80;99.90;;;;;;5017903;28;20026;-76
2021/08/22 04:09:44;;;;;;;8.60;5.47;;;18.90;99.90;;;;;;5012491;28;20022;-78
2021/08/22 04:12:10;;;;;;;8.20;5.13;;;19.10;99.90;;;;;;5000882;28;20340;-75
2021/08/22 04:14:35;;;;;;;11.55;5.68;;;18.90;99.90;;;;;;5020094;28;20030;-76
2021/08/22 04:17:01;;;;;;;10.88;5.60;;;19.00;99.90;;;;;;5003779;28;20054;-76
2021/08/22 04:19:27;;;;;;;8.15;5.20;;;18.90;99.90;;;;;;5006084;28;20061;-76
2021/08/22 04:21:52;;;;;;;8.15;5.30;;;18.90;99.90;;;;;;5006472;28;20092;-76
2021/08/22 04:24:21;;;;;;;9.15;5.50;;;18.90;99.90;;;;;;5019929;28;20037;-78
2021/08/22 04:26:48;;;;;;;8.05;5.38;;;19.00;99.90;;;;;;5005450;28;20034;-80
2021/08/22 04:29:13;;;;;;;10.25;5.22;;;18.90;99.90;;;;;;5013642;28;20049;-76
2021/08/22 04:31:39;;;;;;;8.88;5.45;;;18.90;99.90;;;;;;5011185;28;20077;-76
2021/08/22 04:34:05;;;;;;;8.73;6.03;;;18.80;99.90;;;;;;5018382;28;20076;-76
2021/08/22 04:36:30;;;;;;;9.75;5.40;;;19.00;99.90;;;;;;5016168;28;20029;-76
2021/08/22 04:38:56;;;;;;;7.13;5.05;;;18.90;99.90;;;;;;4989939;28;20018;-77
2021/08/22 04:41:22;;;;;;;8.00;5.25;;;18.90;99.90;;;;;;5014452;28;20030;-78
2021/08/22 04:43:51;;;;;;;7.88;5.53;;;18.90;99.90;;;;;;5018481;28;20105;-77
2021/08/22 04:46:17;;;;;;;7.43;5.13;;;;;;;;;;5018469;28;20033;-77
2021/08/22 04:48:43;;;;;;;7.85;5.22;;;18.90;99.90;;;;;;5015039;28;20288;-78
2021/08/22 04:51:08;;;;;;;9.27;5.72;;;18.90;99.90;;;;;;5018110;28;20033;-78
2021/08/22 04:53:34;;;;;;;7.20;5.45;;;18.90;99.90;;;;;;5001019;28;20037;-76
2021/08/22 04:56:00;;;;;;;7.70;5.38;;;18.90;99.90;;;;;;5004956;28;20026;-78
2021/08/22 04:58:26;;;;;;;12.30;6.03;;;18.90;99.90;;;;;;5003980;28;20013;-77
2021/08/22 05:00:51;;;;;;;8.48;5.85;;;18.80;99.90;;;;;;5018657;28;20399;-77
2021/08/22 05:03:17;;;;;;;8.38;5.57;;;18.90;99.90;;;;;;5019479;28;20101;-77
2021/08/22 05:05:43;;;;;;;8.82;5.45;;;18.90;99.90;;;;;;5023012;28;20100;-76
2021/08/22 05:08:08;;;;;;;9.43;5.45;;;18.90;99.90;;;;;;5017208;28;20075;-76
2021/08/22 05:10:35;;;;;;;8.43;5.85;;;18.90;99.90;;;;;;5000079;28;20033;-77
2021/08/22 05:13:01;;;;;;;11.50;5.82;;;19.00;99.90;;;;;;5017804;28;20030;-77
2021/08/22 05:15:26;;;;;;;11.20;5.97;;;18.90;99.90;;;;;;5017757;28;20022;-76
2021/08/22 05:17:52;;;;;;;9.63;7.13;;;18.90;99.90;;;;;;5019189;28;20023;-78
2021/08/22 05:20:19;;;;;;;9.13;6.32;;;18.90;99.90;;;;;;5018071;28;20026;-76
2021/08/22 05:22:45;;;;;;;9.63;5.97;;;18.90;99.90;;;;;;5007189;28;20042;-76
2021/08/22 05:25:11;;;;;;;8.25;5.35;;;19.00;99.90;;;;;;5012237;28;20022;-78
2021/08/22 05:27:37;;;;;;;10.48;5.90;;;18.90;99.90;;;;;;5025663;28;20034;-76
2021/08/22 05:30:03;;;;;;;10.07;6.07;;;18.90;99.90;;;;;;4991337;28;20118;-78
2021/08/22 05:32:29;;;;;;;10.35;6.45;;;18.90;99.90;;;;;;5023841;28;20022;-77
2021/08/22 05:34:54;;;;;;;8.23;5.65;;;19.00;99.90;;;;;;5005256;28;20128;-78
2021/08/22 05:37:20;;;;;;;11.48;6.53;;;19.00;99.90;;;;;;5002684;28;20056;-78
2021/08/22 05:39:45;;;;;;;9.52;5.97;;;19.10;99.90;;;;;;5006491;28;20022;-77
2021/08/22 05:42:14;;;;;;;9.88;6.60;;;19.00;99.90;;;;;;5000469;28;20037;-77
2021/08/22 05:44:40;;;;;;;9.07;6.10;;;19.20;99.90;;;;;;5018819;28;20035;-76
2021/08/22 05:47:05;;;;;;;8.35;5.72;;;21.10;99.90;;;;;;5000256;28;20030;-78
2021/08/22 05:49:31;;;;;;;10.65;7.00;;;19.00;99.90;;;;;;4997760;28;20049;-78
2021/08/22 05:51:57;;;;;;;8.80;6.13;;;19.30;99.90;;;;;;4996932;28;20053;-78
2021/08/22 05:54:22;;;;;;;10.00;6.47;;;19.20;99.90;;;;;;5018755;28;20053;-77
2021/08/22 05:56:48;;;;;;;9.85;6.35;;;19.10;99.90;;;;;;5000630;28;20125;-76
2021/08/22 05:59:13;;;;;;;8.90;6.35;;;19.20;99.90;;;;;;5018131;28;20077;-77
2021/08/22 06:01:39;;;;;;;8.13;6.13;;;19.20;99.90;;;;;;5018349;28;20037;-77
2021/08/22 06:04:05;;;;;;;8.45;6.13;;;19.10;99.90;;;;;;5004028;28;20056;-78
2021/08/22 06:06:31;;;;;;;10.98;6.78;;;19.10;99.90;;;;;;5004253;28;20415;-76
2021/08/22 06:08:56;;;;;;;9.35;6.30;;;19.20;99.90;;;;;;5003209;28;20025;-77
2021/08/22 06:11:22;;;;;;;8.95;6.28;;;19.30;99.90;;;;;;5016724;28;20072;-76
2021/08/22 06:13:47;;;;;;;10.23;5.90;;;19.60;99.90;;;;;;5003290;28;20085;-77
2021/08/22 06:16:13;;;;;;;9.23;6.55;;;19.20;99.90;;;;;;5007482;28;20028;-77
2021/08/22 06:18:38;;;;;;;9.65;6.43;;;19.20;99.90;;;;;;5012376;28;20019;-77
2021/08/22 06:21:04;;;;;;;10.05;6.50;;;19.20;99.90;;;;;;5000883;28;20033;-78
2021/08/22 06:23:30;;;;;;;11.57;6.65;;;19.20;99.90;;;;;;5004406;28;20055;-78
2021/08/22 06:25:55;;;;;;;9.98;6.50;;;19.20;99.90;;;;;;5020108;28;20083;-77
2021/08/22 06:28:21;;;;;;;8.73;6.55;;;19.10;99.90;;;;;;5018425;28;20034;-82
2021/08/22 06:30:47;;;;;;;11.15;6.72;;;19.40;99.90;;;;;;5010017;28;20041;-77
2021/08/22 06:33:12;;;;;;;10.68;6.28;;;19.20;99.90;;;;;;5017860;28;20024;-77
2021/08/22 06:35:38;;;;;;;10.05;6.57;;;19.20;99.90;;;;;;5000618;28;20049;-78
2021/08/22 06:38:04;;;;;;;11.80;6.38;;;19.20;99.90;;;;;;5010499;28;20019;-77
2021/08/22 06:40:30;;;;;;;8.35;6.50;;;19.10;99.90;;;;;;5005900;28;20015;-78
2021/08/22 06:42:55;;;;;;;8.65;5.75;;;19.20;99.90;;;;;;5015781;28;20025;-78
2021/08/22 06:45:21;;;;;;;10.52;6.85;;;19.30;99.90;;;;;;5000633;28;20064;-78
2021/08/22 06:47:52;;;;;;;9.35;6.45;;;19.30;99.90;;;;;;4999389;28;20041;-77
2021/08/22 06:50:18;;;;;;;7.47;5.78;;;19.40;99.90;;;;;;4996860;28;20398;-78
2021/08/22 06:52:43;;;;;;;9.18;6.85;;;19.50;99.90;;;;;;5023195;28;20034;-79
2021/08/22 06:55:09;;;;;;;10.48;6.28;;;19.70;99.90;;;;;;5017201;28;20085;-78
2021/08/22 06:57:35;;;;;;;10.60;6.60;;;19.50;99.90;;;;;;5011050;28;20022;-76
2021/08/22 07:00:01;;;;;;;9.43;6.38;;;19.50;99.90;;;;;;5017141;28;20048;-78
2021/08/22 07:02:26;;;;;;;10.73;6.70;;;19.70;99.90;;;;;;5016683;28;20034;-78
2021/08/22 07:04:52;;;;;;;11.07;6.57;;;19.50;99.90;;;;;;5016626;28;20436;-79
2021/08/22 07:07:17;;;;;;;11.18;6.65;;;19.80;99.90;;;;;;5013163;28;20033;-78
2021/08/22 07:09:43;;;;;;;9.00;6.65;;;19.50;99.90;;;;;;5002071;28;20053;-77
2021/08/22 07:12:09;;;;;;;10.15;6.22;;;19.50;99.90;;;;;;5015878;28;20026;-77
2021/08/22 07:14:35;;;;;;;8.68;6.13;;;19.50;99.90;;;;;;5003875;28;20022;-78
2021/08/22 07:17:00;;;;;;;11.02;6.20;;;19.50;99.90;;;;;;4996453;28;20022;-76
2021/08/22 07:19:28;;;;;;;8.77;6.50;;;19.60;99.90;;;;;;5010074;28;20028;-77
2021/08/22 07:21:54;;;;;;;8.40;6.25;;;19.70;99.90;;;;;;5016839;28;20559;-76
2021/08/22 07:24:19;;;;;;;10.70;6.97;;;19.70;99.90;;;;;;5001598;28;20044;-75
2021/08/22 07:26:45;;;;;;;11.13;6.72;;;19.60;99.90;;;;;;4998738;28;20114;-78
2021/08/22 07:29:11;;;;;;;8.10;6.00;;;19.70;99.90;;;;;;5019593;28;20037;-78
2021/08/22 07:31:36;;;;;;;9.85;6.70;;;19.60;99.90;;;;;;4992320;28;20037;-78
2021/08/22 07:34:02;;;;;;;9.10;6.90;;;19.60;99.90;;;;;;4994168;28;20018;-76
2021/08/22 07:36:27;;;;;;;11.63;6.85;;;19.60;99.90;;;;;;5016906;28;20399;-77
2021/08/22 07:38:53;;;;;;;9.63;6.82;;;19.60;99.90;;;;;;5003862;28;20042;-77
2021/08/22 07:41:18;;;;;;;9.52;6.47;;;19.70;99.90;;;;;;5016155;28;20034;-79
2021/08/22 07:43:44;;;;;;;7.97;6.07;;;19.70;99.90;;;;;;4998859;28;20030;-78
2021/08/22 07:46:10;;;;;;;11.95;7.30;;;19.60;99.90;;;;;;4994157;28;20379;-77
2021/08/22 07:48:35;;;;;;;13.30;7.28;;;19.70;99.90;;;;;;5000997;28;20053;-78
2021/08/22 07:51:01;;;;;;;9.27;6.30;;;19.80;99.90;;;;;;4992552;28;20025;-78
2021/08/22 07:53:27;;;;;;;8.68;6.57;;;19.90;99.90;;;;;;5003031;28;20411;-79
2021/08/22 07:55:52;;;;;;;10.65;7.15;;;19.90;99.90;;;;;;5011545;28;20022;-77
2021/08/22 07:58:18;;;;;;;10.05;6.90;;;20.10;99.90;;;;;;5024450;28;20030;-78
2021/08/22 08:00:44;;;;;;;10.13;6.95;;;;;;;;;;5015126;28;20733;-75
2021/08/22 08:03:10;;;;;;;11.40;6.80;;;20.40;99.90;;;;;;5023535;28;20045;-77
2021/08/22 08:05:36;;;;;;;7.57;6.00;;;20.50;99.90;;;;;;5026056;28;20521;-77
2021/08/22 08:08:02;;;;;;;9.35;6.03;;;20.60;99.90;;;;;;5027510;28;20109;-76
2021/08/22 08:10:27;;;;;;;9.82;6.45;;;20.60;99.90;;;;;;5027728;28;20033;-78
2021/08/22 08:12:53;;;;;;;9.35;6.72;;;20.60;99.90;;;;;;4998676;28;20045;-76
2021/08/22 08:15:19;;;;;;;8.18;5.80;;;22.10;99.90;;;;;;5008400;28;20813;-78
2021/08/22 08:17:45;;;;;;;9.38;6.15;;;21.20;99.90;;;;;;4988742;28;20121;-79
2021/08/22 08:20:11;;;;;;;8.30;6.28;;;20.50;99.90;;;;;;4996390;28;20065;-76
2021/08/22 08:22:37;;;;;;;8.00;5.60;;;20.40;99.90;;;;;;5002332;28;20034;-78
2021/08/22 08:25:03;;;;;;;7.68;5.53;;;20.50;99.90;;;;;;5001701;28;20498;-78
2021/08/22 08:27:28;;;;;;;8.10;5.53;;;20.50;99.90;;;;;;5020285;28;20026;-78
2021/08/22 08:29:54;;;;;;;10.52;5.88;;;20.50;99.90;;;;;;5021418;28;20026;-77
2021/08/22 08:32:19;;;;;;;7.82;5.53;;;20.60;99.90;;;;;;5021330;28;20504;-79
2021/08/22 08:34:45;;;;;;;7.85;5.43;;;20.50;99.90;;;;;;5019907;28;20443;-78
2021/08/22 08:37:11;;;;;;;9.73;5.53;;;20.40;99.90;;;;;;5007959;28;20032;-79
2021/08/22 08:39:36;;;;;;;8.90;6.45;;;20.40;99.90;;;;;;5021699;28;20037;-77
2021/08/22 08:42:29;;;;;;;9.32;6.50;;;20.30;99.90;;;;;;5021639;28;20030;-78
2021/08/22 08:44:56;;;;;;;7.90;5.20;;;20.20;99.90;;;;;;5003707;28;20399;-78
2021/08/22 08:47:23;;;;;;;8.70;4.95;;;20.30;99.90;;;;;;5003720;28;20029;-78
2021/08/22 08:50:11;;;;;;;8.63;5.10;;;20.50;99.90;;;;;;5016198;28;20495;-79
2021/08/22 08:52:51;;;;;;;7.32;4.80;;;20.30;99.90;;;;;;5015684;28;20041;-78
2021/08/22 08:55:41;;;;;;;5.88;4.50;;;20.20;99.90;;;;;;5023953;28;20840;-77
2021/08/22 08:58:07;;;;;;;7.05;4.63;;;20.30;99.90;;;;;;5013126;28;20036;-76
2021/08/22 09:00:36;;;;;;;6.20;4.03;;;20.30;99.90;;;;;;5016595;28;20101;-77
2021/08/22 09:03:02;;;;;;;4.85;3.50;;;20.40;99.90;;;;;;5004753;28;20022;-77
2021/08/22 09:05:40;;;;;;;6.07;3.83;;;20.60;99.90;;;;;;4998734;28;20559;-80
2021/08/22 09:08:34;;;;;;;5.63;3.67;;;20.60;99.90;;;;;;4994282;28;20022;-77
2021/08/22 09:11:24;;;;;;;5.28;3.70;;;20.80;99.90;;;;;;4999512;28;20092;-79
2021/08/22 09:14:09;;;;;;;6.07;3.58;;;20.80;99.90;;;;;;5016097;28;20033;-77
2021/08/22 09:17:12;;;;;;;5.55;3.40;;;20.80;99.90;;;;;;5002211;28;20031;-79
2021/08/22 09:20:02;;;;;;;5.75;3.08;;;20.80;99.90;;;;;;5017501;28;20018;-77
2021/08/22 09:23:04;;;;;;;6.35;3.88;;;20.80;99.90;;;;;;5013082;28;20045;-79
2021/08/22 09:26:07;;;;;;;5.10;3.35;;;20.90;99.90;;;;;;5021114;28;20041;-78
2021/08/22 09:29:11;;;;;;;6.55;3.78;;;21.00;99.90;;;;;;5017670;28;20026;-77
2021/08/22 09:31:58;;;;;;;5.45;3.25;;;21.00;99.90;;;;;;4930752;28;20043;-78
2021/08/22 09:35:01;;;;;;;5.05;3.20;;;20.90;99.90;;;;;;5019028;28;20050;-76
2021/08/22 09:37:44;;;;;;;4.43;2.88;;;20.80;99.90;;;;;;5017812;28;20026;-77
2021/08/22 09:41:01;;;;;;;5.18;3.08;;;20.90;99.90;;;;;;4998037;28;20140;-76
2021/08/22 09:44:10;;;;;;;6.47;2.80;;;21.00;99.90;;;;;;4940167;29;20028;-78
2021/08/22 09:47:06;;;;;;;5.63;3.42;;;21.00;99.90;;;;;;5011086;28;20033;-77
2021/08/22 09:50:10;;;;;;;6.22;3.38;;;21.20;99.90;;;;;;5013026;28;20070;-76
2021/08/22 09:52:55;;;;;;;5.57;3.28;;;21.20;99.90;;;;;;5015330;28;20130;-76
2021/08/22 09:55:53;;;;;;;6.43;2.67;;;21.20;99.90;;;;;;5012193;28;20018;-77
2021/08/22 09:58:53;;;;;;;5.55;3.17;;;21.10;99.90;;;;;;4960207;28;20039;-78
2021/08/22 10:01:56;;;;;;;5.40;3.33;;;21.10;99.90;;;;;;4950212;28;20031;-78
2021/08/22 10:04:30;;;;;;;5.68;3.85;;;21.00;99.90;;;;;;5016159;28;20038;-78
2021/08/22 10:07:09;;;;;;;4.15;2.70;;;21.00;99.90;;;;;;5015699;28;20078;-76
2021/08/22 10:09:58;;;;;;;5.22;3.20;;;20.90;99.90;;;;;;4995963;28;20038;-77
2021/08/22 10:12:24;;;;;;;5.22;3.22;;;21.00;99.90;;;;;;4995445;28;20033;-75
2021/08/22 10:14:50;;;;;;;4.70;3.00;;;21.20;99.90;;;;;;5014799;28;20037;-77
2021/08/22 10:17:22;;;;;;;6.53;3.10;;;21.20;99.90;;;;;;4988230;28;20545;-76
2021/08/22 10:19:48;;;;;;;5.07;2.95;;;21.20;99.90;;;;;;5011590;28;20028;-78
2021/08/22 10:22:18;;;;;;;5.63;3.30;;;21.20;99.90;;;;;;5014078;28;20096;-77
2021/08/22 10:24:54;;;;;;;6.45;3.80;;;21.20;99.90;;;;;;4996177;28;20045;-77
2021/08/22 10:27:36;;;;;;;5.30;3.45;;;21.10;99.90;;;;;;4998643;28;20398;-78
2021/08/22 10:30:05;;;;;;;5.10;3.30;;;20.80;99.90;;;;;;4995931;28;20084;-77
2021/08/22 10:32:32;;;;;;;5.65;3.45;;;20.80;99.90;;;;;;4999680;28;20025;-77
2021/08/22 10:35:07;;;;;;;4.53;3.15;;;21.10;99.90;;;;;;5014621;28;20088;-78
2021/08/22 10:37:34;;;;;;;6.80;3.33;;;20.80;99.90;;;;;;4997262;28;20068;-77
2021/08/22 10:40:25;;;;;;;5.32;3.30;;;20.90;99.90;;;;;;4997226;28;20112;-75
2021/08/22 10:42:57;;;;;;;6.68;4.05;;;20.80;99.90;;;;;;4997382;28;20049;-76
2021/08/22 10:45:45;;;;;;;5.95;3.63;;;20.80;99.90;;;;;;5008606;28;20033;-76
2021/08/22 10:48:14;;;;;;;5.68;3.50;;;21.00;99.90;;;;;;4985391;28;20030;-74
2021/08/22 10:50:59;;;;;;;4.70;2.70;;;21.00;99.90;;;;;;5015861;28;20036;-77
2021/08/22 10:53:26;;;;;;;6.00;3.58;;;21.10;99.90;;;;;;5008980;28;20037;-76
2021/08/22 10:55:52;;;;;;;4.53;2.78;;;21.30;99.90;;;;;;5013579;28;20069;-74
2021/08/22 10:58:18;;;;;;;4.65;3.22;;;21.50;99.90;;;;;;5000181;28;20022;-76
2021/08/22 11:00:44;;;;;;;6.90;3.78;;;21.20;99.90;;;;;;4995371;28;20048;-77
2021/08/22 11:03:22;;;;;;;5.40;3.45;;;21.20;99.90;;;;;;5004609;28;20541;-75
2021/08/22 11:05:48;;;;;;;5.32;3.10;;;21.20;99.90;;;;;;5003123;28;20097;-77
2021/08/22 11:08:14;;;;;;;6.03;3.55;;;21.10;99.90;;;;;;5012120;28;20452;-76
2021/08/22 11:11:03;;;;;;;6.05;3.67;;;21.00;99.90;;;;;;5015370;28;20026;-75
2021/08/22 11:13:31;;;;;;;4.72;3.20;;;20.90;99.90;;;;;;4990780;28;20022;-77
2021/08/22 11:16:05;;;;;;;7.65;3.03;;;20.80;99.90;;;;;;5011364;28;20037;-76
2021/08/22 11:18:31;;;;;;;5.15;3.33;;;20.60;99.90;;;;;;4998315;28;20025;-77
2021/08/22 11:20:56;;;;;;;7.57;3.40;;;20.50;99.90;;;;;;5014278;28;20030;-76
2021/08/22 11:23:24;;;;;;;6.80;3.25;;;20.50;99.90;;;;;;4998317;28;20685;-75
2021/08/22 11:26:06;;;;;;;6.22;3.05;;;20.00;99.90;;;;;;5016115;28;20460;-78
2021/08/22 11:28:33;;;;;;;7.97;3.60;;;19.80;99.90;;;;;;5002665;28;20128;-78
2021/08/22 11:30:59;;;;;;;8.07;3.40;;;19.50;99.90;;;;;;5000118;28;20083;-77
2021/08/22 11:33:28;;;;;;;6.15;3.20;;;19.40;99.90;;;;;;5002407;28;20117;-75
2021/08/22 11:35:54;;;;;;;5.15;3.30;;;19.30;99.90;;;;;;5018445;28;20092;-75
2021/08/22 11:38:20;;;;;;;5.90;3.47;;;19.20;99.90;;;;;;5003707;28;20026;-76
2021/08/22 11:40:45;;;;;;;6.55;3.20;;;19.10;99.90;;;;;;5003967;28;20030;-76
2021/08/22 11:43:13;;;;;;;7.80;3.78;;;19.10;99.90;;;;;;5018344;28;20391;-76
2021/08/22 11:45:44;;;;;;;5.88;3.25;;;19.20;99.90;;;;;;5018430;28;20029;-77
2021/08/22 11:48:18;;;;;;;6.97;3.22;;;19.70;99.90;;;;;;4997416;28;20061;-78
2021/08/22 11:50:45;;;;;;;4.35;2.47;;;19.30;99.90;;;;;;5010660;28;20073;-76
2021/08/22 11:53:11;;;;;;;5.00;2.88;;;19.40;99.90;;;;;;5019312;28;20044;-76
2021/08/22 11:55:39;;;;;;;7.38;3.55;;;19.70;99.90;;;;;;5001386;28;20396;-76
2021/08/22 11:58:19;;;;;;;4.80;2.70;;;19.90;99.90;;;;;;5000566;28;20025;-75
2021/08/22 12:00:50;;;;;;;;;;;20.10;99.90;;;;;;5015473;28;20036;-76
2021/08/22 12:03:18;;;;;;;5.72;2.80;;;19.90;99.90;;;;;;5018002;28;20294;-77
2021/08/22 12:05:51;;;;;;;6.93;3.20;;;20.10;99.90;;;;;;5001365;28;20026;-76
2021/08/22 12:08:17;;;;;;;6.00;2.58;;;20.20;99.90;;;;;;5008467;28;20835;-76
2021/08/22 12:10:43;;;;;;;6.22;3.40;;;20.40;99.90;;;;;;5000996;28;20088;-77
2021/08/22 12:13:21;;;;;;;5.07;2.80;;;20.80;99.90;;;;;;5016578;28;20022;-77
2021/08/22 12:15:50;;;;;;;6.80;2.63;;;21.20;99.90;;;;;;5017832;28;20030;-77
2021/08/22 12:18:17;;;;;;;4.60;2.55;;;21.50;99.90;;;;;;5013007;28;20498;-77
2021/08/22 12:20:44;;;;;;;4.57;2.85;;;21.80;99.90;;;;;;4989680;28;20561;-76
2021/08/22 12:23:11;;;;;;;4.40;2.40;;;22.20;99.90;;;;;;5001397;28;20097;-76
2021/08/22 12:25:40;;;;;;;5.15;2.63;;;22.30;99.90;;;;;;5000859;28;20040;-77
2021/08/22 12:28:28;;;;;;;5.00;2.95;;;22.40;99.90;;;;;;5017183;28;20109;-77
2021/08/22 12:31:02;;;;;;;14.45;8.13;;;22.10;99.90;;;;;;5016823;28;20026;-76
2021/08/22 12:33:34;;;;;;;4.85;2.65;;;22.20;99.90;;;;;;4997484;28;20371;-76
2021/08/22 12:36:08;;;;;;;4.82;3.17;;;22.20;99.90;;;;;;5001771;28;20064;-76
2021/08/22 12:38:45;;;;;;;4.85;2.53;;;22.20;99.90;;;;;;5002559;28;20026;-77
2021/08/22 12:41:42;;;;;;;5.93;2.85;;;22.10;99.90;;;;;;5015615;28;20073;-76
2021/08/22 12:44:10;;;;;;;6.30;3.03;;;22.10;99.90;;;;;;5007264;28;20075;-77
2021/08/22 12:46:38;;;;;;;5.05;2.97;;;22.00;99.90;;;;;;5016628;28;20105;-78
2021/08/22 12:49:04;;;;;;;3.92;2.60;;;22.10;99.90;;;;;;4996761;28;20426;-76
2021/08/22 12:51:31;;;;;;;5.70;2.78;;;21.90;99.90;;;;;;4991532;28;20061;-77
2021/08/22 12:53:58;;;;;;;4.65;3.15;;;21.50;99.90;;;;;;5015752;28;20517;-76
2021/08/22 12:56:23;;;;;;;6.13;3.40;;;21.20;99.90;;;;;;4998905;28;20022;-77
2021/08/22 12:58:53;;;;;;;5.32;2.67;;;21.40;99.90;;;;;;5016162;28;20018;-77
2021/08/22 13:01:20;;;;;;;5.47;2.80;;;20.90;99.90;;;;;;4998666;28;20061;-77